createdAt,value
2023-01-27T00:00:14.407Z,87.34
2023-01-27T00:02:42.672Z,87.57
2023-01-27T00:05:11.645Z,87.44
2023-01-27T00:07:38.629Z,88.09
2023-01-27T00:10:06.308Z,88.68
2023-01-27T00:12:51.072Z,88.58
2023-01-27T00:15:17.601Z,87.75
2023-01-27T00:17:44.030Z,87.68
2023-01-27T00:20:11.343Z,88.72
2023-01-27T00:22:56.319Z,88.07
2023-01-27T00:25:22.773Z,88.62
2023-01-27T00:27:49.200Z,88.51
2023-01-27T00:30:15.704Z,88.13
2023-01-27T00:33:00.433Z,87.63
2023-01-27T00:35:27.515Z,88.42
2023-01-27T00:37:54.303Z,88.74
2023-01-27T00:40:20.840Z,88.60
2023-01-27T00:42:47.271Z,88.51
2023-01-27T00:45:32.382Z,88.72
2023-01-27T00:47:58.811Z,88.42
2023-01-27T00:50:25.250Z,88.92
2023-01-27T00:52:52.788Z,88.69
2023-01-27T00:55:19.448Z,88.04
2023-01-27T00:57:45.938Z,88.36
2023-01-27T01:00:14.146Z,87.83
2023-01-27T01:02:40.873Z,88.10
2023-01-27T01:05:07.700Z,88.56
2023-01-27T01:07:34.976Z,87.88
2023-01-27T01:10:01.425Z,88.72
2023-01-27T01:12:27.897Z,88.48
2023-01-27T01:14:54.309Z,88.83
2023-01-27T01:17:21.668Z,88.32
2023-01-27T01:19:48.313Z,89.32
2023-01-27T01:22:14.723Z,88.84
2023-01-27T01:24:41.114Z,88.18
2023-01-27T01:27:07.500Z,88.96
2023-01-27T01:29:33.922Z,89.41
2023-01-27T01:32:00.481Z,89.07
2023-01-27T01:34:26.954Z,89.38
2023-01-27T01:36:53.367Z,88.40
2023-01-27T01:39:19.757Z,88.75
2023-01-27T01:41:46.936Z,88.41
2023-01-27T01:44:30.602Z,89.39
2023-01-27T01:47:00.033Z,88.83
2023-01-27T01:49:36.506Z,88.20
2023-01-27T01:52:09.193Z,88.88
2023-01-27T01:54:43.307Z,89.68
2023-01-27T01:57:16.389Z,89.54
2023-01-27T01:59:48.617Z,89.94
2023-01-27T02:02:19.747Z,88.79
2023-01-27T02:04:56.378Z,88.94
2023-01-27T02:07:37.336Z,88.83
2023-01-27T02:10:04.480Z,88.46
2023-01-27T02:12:35.528Z,88.55
2023-01-27T02:15:02.072Z,88.51
2023-01-27T02:17:28.671Z,89.07
2023-01-27T02:20:28.663Z,89.13
2023-01-27T02:23:14.017Z,88.75
2023-01-27T02:25:44.696Z,89.57
2023-01-27T02:28:11.092Z,88.75
2023-01-27T02:30:37.618Z,88.88
2023-01-27T02:33:11.552Z,89.53
2023-01-27T02:35:44.086Z,89.63
2023-01-27T02:38:13.051Z,89.80
2023-01-27T02:40:40.538Z,89.64
2023-01-27T02:43:07.094Z,89.12
2023-01-27T02:45:33.559Z,88.84
2023-01-27T02:48:01.686Z,89.29
2023-01-27T02:50:28.652Z,89.53
2023-01-27T02:52:55.139Z,89.48
2023-01-27T02:55:22.260Z,89.76
2023-01-27T02:57:50.940Z,88.77
2023-01-27T03:00:31.103Z,89.14
2023-01-27T03:02:57.639Z,89.29
2023-01-27T03:05:24.674Z,88.93
2023-01-27T03:07:51.255Z,89.19
2023-01-27T03:10:19.361Z,89.19
2023-01-27T03:12:45.847Z,89.40
2023-01-27T03:15:32.000Z,88.96
2023-01-27T03:18:13.375Z,89.03
2023-01-27T03:20:41.165Z,88.48
2023-01-27T03:23:08.048Z,88.47
2023-01-27T03:25:35.863Z,88.53
2023-01-27T03:28:02.781Z,89.61
2023-01-27T03:30:52.464Z,89.31
2023-01-27T03:33:24.393Z,89.11
2023-01-27T03:36:12.270Z,88.78
2023-01-27T03:39:04.755Z,89.44
2023-01-27T03:41:50.010Z,88.88
2023-01-27T03:44:35.224Z,88.89
2023-01-27T03:47:01.932Z,89.44
2023-01-27T03:49:28.591Z,89.04
2023-01-27T03:51:56.118Z,89.38
2023-01-27T03:54:22.495Z,89.32
2023-01-27T03:56:49.003Z,89.29
2023-01-27T03:59:17.070Z,89.28
2023-01-27T04:01:44.101Z,89.64
2023-01-27T04:04:29.958Z,90.13
2023-01-27T04:06:58.791Z,88.97
2023-01-27T04:09:36.139Z,89.21
2023-01-27T04:12:05.323Z,89.92
2023-01-27T04:14:43.827Z,89.61
2023-01-27T04:17:13.109Z,90.21
2023-01-27T04:19:39.782Z,90.10
2023-01-27T04:22:06.913Z,89.79
2023-01-27T04:24:33.368Z,89.30
2023-01-27T04:27:05.468Z,89.27
2023-01-27T04:29:36.097Z,88.91
2023-01-27T04:32:05.002Z,89.87
2023-01-27T04:34:32.084Z,89.97
2023-01-27T04:36:59.538Z,90.08
2023-01-27T04:39:26.453Z,90.03
2023-01-27T04:41:52.942Z,89.52
2023-01-27T04:44:20.286Z,90.16
2023-01-27T04:46:47.240Z,89.90
2023-01-27T04:49:13.659Z,90.30
2023-01-27T04:51:40.115Z,90.27
2023-01-27T04:54:06.620Z,89.43
2023-01-27T04:56:35.956Z,89.32
2023-01-27T04:59:08.207Z,90.20
2023-01-27T05:01:34.671Z,90.10
2023-01-27T05:04:01.141Z,89.79
2023-01-27T05:06:27.821Z,90.37
2023-01-27T05:08:54.319Z,89.49
2023-01-27T05:11:21.183Z,89.65
2023-01-27T05:13:47.981Z,89.14
2023-01-27T05:16:27.507Z,90.19
2023-01-27T05:18:54.182Z,89.61
2023-01-27T05:21:23.354Z,89.18
2023-01-27T05:23:50.221Z,89.39
2023-01-27T05:26:22.485Z,89.10
2023-01-27T05:28:50.661Z,89.87
2023-01-27T05:31:29.084Z,89.25
2023-01-27T05:33:57.856Z,88.76
2023-01-27T05:36:26.012Z,89.40
2023-01-27T05:38:53.980Z,89.80
2023-01-27T05:41:20.810Z,89.41
2023-01-27T05:43:52.016Z,89.62
2023-01-27T05:46:21.525Z,89.92
2023-01-27T05:48:50.621Z,89.58
2023-01-27T05:51:19.422Z,88.88
2023-01-27T05:53:46.300Z,89.14
2023-01-27T05:56:18.744Z,89.47
2023-01-27T05:58:45.488Z,89.87
2023-01-27T06:01:17.850Z,89.15
2023-01-27T06:03:45.068Z,89.98
2023-01-27T06:06:13.462Z,89.48
2023-01-27T06:08:40.258Z,89.53
2023-01-27T06:11:07.139Z,88.84
2023-01-27T06:13:38.537Z,88.73
2023-01-27T06:16:06.238Z,88.58
2023-01-27T06:18:33.104Z,88.49
2023-01-27T06:21:01.124Z,89.46
2023-01-27T06:23:28.270Z,90.00
2023-01-27T06:25:56.643Z,90.15
2023-01-27T06:28:29.152Z,89.36
2023-01-27T06:30:57.266Z,89.83
2023-01-27T06:33:23.807Z,89.91
2023-01-27T06:35:50.264Z,89.43
2023-01-27T06:38:16.854Z,89.06
2023-01-27T06:40:44.087Z,89.38
2023-01-27T06:43:14.224Z,90.07
2023-01-27T06:45:41.114Z,89.34
2023-01-27T06:48:11.200Z,89.28
2023-01-27T06:50:37.660Z,89.37
2023-01-27T06:53:06.173Z,89.96
2023-01-27T06:55:33.130Z,89.17
2023-01-27T06:58:01.324Z,88.96
2023-01-27T07:00:27.778Z,89.36
2023-01-27T07:02:57.570Z,89.98
2023-01-27T07:05:24.632Z,89.34
2023-01-27T07:07:51.114Z,89.60
2023-01-27T07:10:17.914Z,90.10
2023-01-27T07:12:44.358Z,89.79
2023-01-27T07:15:11.812Z,90.10
2023-01-27T07:17:38.731Z,90.36
2023-01-27T07:20:07.964Z,89.90
2023-01-27T07:22:34.401Z,90.35
2023-01-27T07:25:01.589Z,90.00
2023-01-27T07:27:28.194Z,89.14
2023-01-27T07:29:54.611Z,89.57
2023-01-27T07:32:21.431Z,89.30
2023-01-27T07:34:47.831Z,89.54
2023-01-27T07:37:14.515Z,90.04
2023-01-27T07:39:40.940Z,89.08
2023-01-27T07:42:08.572Z,89.41
2023-01-27T07:44:36.327Z,89.59
2023-01-27T07:47:02.916Z,88.93
2023-01-27T07:49:29.549Z,89.32
2023-01-27T07:51:56.004Z,88.25
2023-01-27T07:54:22.709Z,87.82
2023-01-27T07:56:49.125Z,88.89
2023-01-27T07:59:15.571Z,88.75
2023-01-27T08:01:43.229Z,87.99
2023-01-27T08:04:09.899Z,88.17
2023-01-27T08:06:39.452Z,88.52
2023-01-27T08:09:06.449Z,88.02
2023-01-27T08:11:33.360Z,87.61
2023-01-27T08:13:59.777Z,87.32
2023-01-27T08:16:26.209Z,87.46
2023-01-27T08:18:53.899Z,87.78
2023-01-27T08:21:21.194Z,86.97
2023-01-27T08:23:47.688Z,87.26
2023-01-27T08:26:14.293Z,87.86
2023-01-27T08:28:40.864Z,88.41
2023-01-27T08:31:11.252Z,87.76
2023-01-27T08:33:37.834Z,88.14
2023-01-27T08:36:17.850Z,88.10
2023-01-27T08:38:45.649Z,87.05
2023-01-27T08:41:17.813Z,87.74
2023-01-27T08:43:44.236Z,88.02
2023-01-27T08:46:11.699Z,87.74
2023-01-27T08:48:38.619Z,88.21
2023-01-27T08:51:06.595Z,87.29
2023-01-27T08:53:33.888Z,88.03
2023-01-27T08:56:07.249Z,88.51
2023-01-27T08:58:34.588Z,88.14
2023-01-27T09:01:02.439Z,88.38
2023-01-27T09:03:33.355Z,87.93
2023-01-27T09:06:00.572Z,87.90
2023-01-27T09:08:27.901Z,87.52
2023-01-27T09:10:54.432Z,87.64
2023-01-27T09:13:22.271Z,88.09
2023-01-27T09:15:52.742Z,87.84
2023-01-27T09:18:19.953Z,88.14
2023-01-27T09:20:46.640Z,88.51
2023-01-27T09:23:13.121Z,88.51
2023-01-27T09:25:39.679Z,87.46
2023-01-27T09:28:06.174Z,88.05
2023-01-27T09:30:32.722Z,87.31
2023-01-27T09:33:00.365Z,88.09
2023-01-27T09:35:36.290Z,87.94
2023-01-27T09:38:04.552Z,88.12
2023-01-27T09:40:48.952Z,88.01
2023-01-27T09:43:39.248Z,88.31
2023-01-27T09:46:27.338Z,87.78
2023-01-27T09:49:12.439Z,87.37
2023-01-27T09:52:04.394Z,87.73
2023-01-27T09:55:09.536Z,88.54
2023-01-27T09:57:57.061Z,88.29
2023-01-27T10:00:34.010Z,87.80
2023-01-27T10:03:15.706Z,87.81
2023-01-27T10:06:19.938Z,87.43
2023-01-27T10:09:07.764Z,87.89
2023-01-27T10:11:40.770Z,87.37
2023-01-27T10:14:18.598Z,87.05
2023-01-27T10:17:00.670Z,87.31
2023-01-27T10:19:46.161Z,87.65
2023-01-27T10:22:24.476Z,87.41
2023-01-27T10:25:30.293Z,87.32
2023-01-27T10:27:58.957Z,86.86
2023-01-27T10:30:35.409Z,86.98
2023-01-27T10:33:18.895Z,87.08
2023-01-27T10:35:52.654Z,86.60
2023-01-27T10:38:30.103Z,86.80
2023-01-27T10:41:02.681Z,86.00
2023-01-27T10:43:42.599Z,85.97
2023-01-27T10:46:36.228Z,85.89
2023-01-27T10:49:46.672Z,86.56
2023-01-27T10:52:18.204Z,85.74
2023-01-27T10:54:52.769Z,86.26
2023-01-27T10:57:27.465Z,86.44
2023-01-27T11:00:41.870Z,86.28
2023-01-27T11:03:10.987Z,85.95
2023-01-27T11:05:41.396Z,85.79
2023-01-27T11:08:21.193Z,86.98
2023-01-27T11:11:11.501Z,86.30
2023-01-27T11:13:38.916Z,86.58
2023-01-27T11:16:09.475Z,86.78
2023-01-27T11:18:38.631Z,86.20
2023-01-27T11:21:09.621Z,86.38
2023-01-27T11:23:46.665Z,86.74
2023-01-27T11:26:27.073Z,86.22
2023-01-27T11:29:09.549Z,86.58
2023-01-27T11:31:50.954Z,85.91
2023-01-27T11:34:35.766Z,85.92
2023-01-27T11:37:13.323Z,85.66
2023-01-27T11:39:39.768Z,85.15
2023-01-27T11:42:06.183Z,85.12
2023-01-27T11:44:34.410Z,85.47
2023-01-27T11:47:03.920Z,85.93
2023-01-27T11:49:36.859Z,85.42
2023-01-27T11:52:15.111Z,85.64
2023-01-27T11:55:05.254Z,84.70
2023-01-27T11:57:31.815Z,85.58
2023-01-27T12:00:07.608Z,85.42
2023-01-27T12:02:44.944Z,85.36
2023-01-27T12:05:17.791Z,85.37
2023-01-27T12:08:01.793Z,84.69
2023-01-27T12:10:39.038Z,85.04
2023-01-27T12:13:19.516Z,84.86
2023-01-27T12:15:58.975Z,85.59
2023-01-27T12:18:25.414Z,84.82
2023-01-27T12:21:04.516Z,85.01
2023-01-27T12:23:39.319Z,84.25
2023-01-27T12:26:11.820Z,85.34
2023-01-27T12:28:41.384Z,84.59
2023-01-27T12:31:20.605Z,84.48
2023-01-27T12:33:58.522Z,85.11
2023-01-27T12:36:25.357Z,84.60
2023-01-27T12:38:54.116Z,84.90
2023-01-27T12:41:42.461Z,84.10
2023-01-27T12:44:16.853Z,83.53
2023-01-27T12:47:02.674Z,84.26
2023-01-27T12:49:34.899Z,84.07
2023-01-27T12:52:04.873Z,83.66
2023-01-27T12:54:32.825Z,84.88
2023-01-27T12:57:05.668Z,83.89
2023-01-27T12:59:33.292Z,84.05
2023-01-27T13:02:17.877Z,83.92
2023-01-27T13:05:00.190Z,83.79
2023-01-27T13:07:34.764Z,83.89
2023-01-27T13:10:04.469Z,84.01
2023-01-27T13:12:47.502Z,83.73
2023-01-27T13:15:19.381Z,84.04
2023-01-27T13:17:50.844Z,83.70
2023-01-27T13:20:23.482Z,83.98
2023-01-27T13:23:14.672Z,83.80
2023-01-27T13:25:50.892Z,84.26
2023-01-27T13:28:23.990Z,84.49
2023-01-27T13:30:56.402Z,83.39
2023-01-27T13:33:47.948Z,83.80
2023-01-27T13:36:33.141Z,84.20
2023-01-27T13:39:18.395Z,84.27
2023-01-27T13:41:56.865Z,83.51
2023-01-27T13:44:36.817Z,83.72
2023-01-27T13:47:11.658Z,84.49
2023-01-27T13:49:44.325Z,84.45
2023-01-27T13:52:11.232Z,84.06
2023-01-27T13:54:37.734Z,84.07
2023-01-27T13:57:22.888Z,84.57
2023-01-27T14:00:19.578Z,85.13
2023-01-27T14:03:13.930Z,84.96
2023-01-27T14:05:53.191Z,85.41
2023-01-27T14:08:35.843Z,84.32
2023-01-27T14:11:27.220Z,85.10
2023-01-27T14:14:09.224Z,84.90
2023-01-27T14:16:50.973Z,84.38
2023-01-27T14:19:35.177Z,85.04
2023-01-27T14:22:20.309Z,84.93
2023-01-27T14:25:00.007Z,84.32
2023-01-27T14:27:34.881Z,84.63
2023-01-27T14:30:27.386Z,85.04
2023-01-27T14:33:12.180Z,84.19
2023-01-27T14:35:38.540Z,84.29
2023-01-27T14:38:11.359Z,84.26
2023-01-27T14:41:20.137Z,85.43
2023-01-27T14:44:01.824Z,85.28
2023-01-27T14:46:50.226Z,85.50
2023-01-27T14:49:54.388Z,85.50
2023-01-27T14:52:37.173Z,84.81
2023-01-27T14:55:21.899Z,85.38
2023-01-27T14:57:56.683Z,85.27
2023-01-27T15:00:54.039Z,85.19
2023-01-27T15:03:24.403Z,85.27
2023-01-27T15:06:01.857Z,85.55
2023-01-27T15:08:52.740Z,85.05
2023-01-27T15:11:43.928Z,86.02
2023-01-27T15:14:48.897Z,85.29
2023-01-27T15:17:33.441Z,85.72
2023-01-27T15:20:18.630Z,86.20
2023-01-27T15:22:53.429Z,86.23
2023-01-27T15:25:39.952Z,86.61
2023-01-27T15:28:13.433Z,86.03
2023-01-27T15:30:41.410Z,86.43
2023-01-27T15:33:48.674Z,87.14
2023-01-27T15:36:32.603Z,86.67
2023-01-27T15:39:11.317Z,87.36
2023-01-27T15:41:51.186Z,87.48
2023-01-27T15:44:32.359Z,87.09
2023-01-27T15:47:26.173Z,86.99
2023-01-27T15:50:33.942Z,87.15
2023-01-27T15:53:04.348Z,87.80
2023-01-27T15:55:33.555Z,87.76
2023-01-27T15:58:06.165Z,87.18
2023-01-27T16:00:38.665Z,87.91
2023-01-27T16:03:17.230Z,87.31
2023-01-27T16:05:52.350Z,87.57
2023-01-27T16:08:20.332Z,88.23
2023-01-27T16:10:46.843Z,88.61
2023-01-27T16:13:29.964Z,87.91
2023-01-27T16:16:18.168Z,87.95
2023-01-27T16:19:04.705Z,88.65
2023-01-27T16:21:55.045Z,88.77
2023-01-27T16:24:32.981Z,87.91
2023-01-27T16:27:14.704Z,88.59
2023-01-27T16:30:05.799Z,88.26
2023-01-27T16:32:42.548Z,88.94
2023-01-27T16:35:18.482Z,88.79
2023-01-27T16:38:26.685Z,89.47
2023-01-27T16:40:59.529Z,88.69
2023-01-27T16:43:31.801Z,88.97
2023-01-27T16:46:01.626Z,89.84
2023-01-27T16:48:46.288Z,89.78
2023-01-27T16:51:18.500Z,88.88
2023-01-27T16:53:47.753Z,89.37
2023-01-27T16:56:27.523Z,89.34
2023-01-27T16:59:07.372Z,89.32
2023-01-27T17:01:41.763Z,88.49
2023-01-27T17:04:19.990Z,88.42
2023-01-27T17:06:48.912Z,88.74
2023-01-27T17:09:24.527Z,89.00
2023-01-27T17:11:51.103Z,89.11
2023-01-27T17:14:29.905Z,89.29
2023-01-27T17:17:01.231Z,88.33
2023-01-27T17:19:31.236Z,88.42
2023-01-27T17:22:10.039Z,88.88
2023-01-27T17:24:40.235Z,89.32
2023-01-27T17:27:24.213Z,88.76
2023-01-27T17:29:55.313Z,88.93
2023-01-27T17:32:31.269Z,89.51
2023-01-27T17:35:00.367Z,89.15
2023-01-27T17:37:29.416Z,88.56
2023-01-27T17:39:58.587Z,88.66
2023-01-27T17:42:34.152Z,88.62
2023-01-27T17:45:22.651Z,89.09
2023-01-27T17:47:49.762Z,88.31
2023-01-27T17:50:25.510Z,88.65
2023-01-27T17:52:56.216Z,88.97
2023-01-27T17:55:24.782Z,88.24
2023-01-27T17:58:04.457Z,89.17
2023-01-27T18:00:37.998Z,89.35
2023-01-27T18:03:16.631Z,89.42
2023-01-27T18:05:45.179Z,88.71
2023-01-27T18:08:11.703Z,88.97
2023-01-27T18:10:44.012Z,89.45
2023-01-27T18:13:37.068Z,89.50
2023-01-27T18:16:15.933Z,90.05
2023-01-27T18:18:43.155Z,89.00
2023-01-27T18:21:09.691Z,90.13
2023-01-27T18:23:46.640Z,89.84
2023-01-27T18:26:13.007Z,89.31
2023-01-27T18:28:40.983Z,90.09
2023-01-27T18:31:18.583Z,89.09
2023-01-27T18:33:46.387Z,89.51
2023-01-27T18:36:22.115Z,89.12
2023-01-27T18:38:50.552Z,88.99
2023-01-27T18:41:27.716Z,89.50
2023-01-27T18:43:55.239Z,88.74
2023-01-27T18:46:21.987Z,89.06
2023-01-27T18:48:48.544Z,89.33
2023-01-27T18:51:16.411Z,88.18
2023-01-27T18:53:43.148Z,89.15
2023-01-27T18:56:09.713Z,88.61
2023-01-27T18:58:36.178Z,88.66
2023-01-27T19:01:03.560Z,89.14
2023-01-27T19:03:34.399Z,88.36
2023-01-27T19:06:01.275Z,88.26
2023-01-27T19:08:27.882Z,88.71
2023-01-27T19:10:54.407Z,87.68
2023-01-27T19:13:20.871Z,89.03
2023-01-27T19:15:52.655Z,89.11
2023-01-27T19:18:26.184Z,88.09
2023-01-27T19:20:53.243Z,88.52
2023-01-27T19:23:21.032Z,87.98
2023-01-27T19:25:50.055Z,88.03
2023-01-27T19:28:23.879Z,87.77
2023-01-27T19:30:50.544Z,87.79
2023-01-27T19:33:24.129Z,88.72
2023-01-27T19:36:10.542Z,87.78
2023-01-27T19:38:36.975Z,88.15
2023-01-27T19:41:03.379Z,87.79
2023-01-27T19:43:29.774Z,87.83
2023-01-27T19:45:56.242Z,87.74
2023-01-27T19:48:24.240Z,88.37
2023-01-27T19:50:52.121Z,87.78
2023-01-27T19:53:20.041Z,87.80
2023-01-27T19:55:47.252Z,87.46
2023-01-27T19:58:25.252Z,88.08
2023-01-27T20:00:52.988Z,87.40
2023-01-27T20:03:19.542Z,87.96
2023-01-27T20:05:46.237Z,88.18
2023-01-27T20:08:15.714Z,87.30
2023-01-27T20:10:42.495Z,88.06
2023-01-27T20:13:17.809Z,88.16
2023-01-27T20:15:45.576Z,87.47
2023-01-27T20:18:16.726Z,87.38
2023-01-27T20:20:44.267Z,88.38
2023-01-27T20:23:17.404Z,87.53
2023-01-27T20:25:43.915Z,88.37
2023-01-27T20:28:12.048Z,88.60
2023-01-27T20:30:38.844Z,88.44
2023-01-27T20:33:05.710Z,87.91
2023-01-27T20:35:32.329Z,87.93
2023-01-27T20:37:58.953Z,88.07
2023-01-27T20:40:28.171Z,87.92
2023-01-27T20:42:54.682Z,88.72
2023-01-27T20:45:22.116Z,87.90
2023-01-27T20:47:50.835Z,88.31
2023-01-27T20:50:18.139Z,88.48
2023-01-27T20:52:45.192Z,88.23
2023-01-27T20:55:13.400Z,87.97
2023-01-27T20:57:40.207Z,89.42
2023-01-27T21:00:07.615Z,88.99
2023-01-27T21:02:34.537Z,89.48
2023-01-27T21:05:00.987Z,89.72
2023-01-27T21:07:27.549Z,89.76
2023-01-27T21:09:54.978Z,89.57
2023-01-27T21:12:21.485Z,88.88
2023-01-27T21:14:48.048Z,89.33
2023-01-27T21:17:14.629Z,89.34
2023-01-27T21:19:41.111Z,90.30
2023-01-27T21:22:07.553Z,90.17
2023-01-27T21:24:35.391Z,90.42
2023-01-27T21:27:01.810Z,89.92
2023-01-27T21:29:28.304Z,89.90
2023-01-27T21:31:54.787Z,90.08
2023-01-27T21:34:21.698Z,90.87
2023-01-27T21:36:48.335Z,90.00
2023-01-27T21:39:14.881Z,91.19
2023-01-27T21:41:53.532Z,90.63
2023-01-27T21:44:47.435Z,90.31
2023-01-27T21:47:18.832Z,89.98
2023-01-27T21:50:01.174Z,90.59
2023-01-27T21:52:39.498Z,91.03
2023-01-27T21:55:08.494Z,90.84
2023-01-27T21:57:35.035Z,91.21
2023-01-27T22:00:01.580Z,91.00
2023-01-27T22:02:38.920Z,89.83
2023-01-27T22:05:05.870Z,89.86
2023-01-27T22:07:37.992Z,90.36
2023-01-27T22:10:10.733Z,89.84
2023-01-27T22:12:37.143Z,89.62
2023-01-27T22:15:03.900Z,90.25
2023-01-27T22:17:30.358Z,90.31
2023-01-27T22:19:56.743Z,90.79
2023-01-27T22:22:23.169Z,90.39
2023-01-27T22:24:49.559Z,89.91
2023-01-27T22:27:15.979Z,89.75
2023-01-27T22:29:42.411Z,90.62
2023-01-27T22:32:08.876Z,89.66
2023-01-27T22:34:35.345Z,90.10
2023-01-27T22:37:01.856Z,90.23
2023-01-27T22:39:28.443Z,90.18
2023-01-27T22:41:54.862Z,90.36
2023-01-27T22:44:21.301Z,90.04
2023-01-27T22:46:49.860Z,89.67
2023-01-27T22:49:16.270Z,90.03
2023-01-27T22:51:42.911Z,90.59
2023-01-27T22:54:10.328Z,90.12
2023-01-27T22:56:36.808Z,90.06
2023-01-27T22:59:03.954Z,90.32
2023-01-27T23:01:30.487Z,90.51
2023-01-27T23:03:56.888Z,89.97
2023-01-27T23:06:23.339Z,90.47
2023-01-27T23:08:49.736Z,90.50
2023-01-27T23:11:16.298Z,90.11
2023-01-27T23:13:42.778Z,89.74
2023-01-27T23:16:10.045Z,89.85
2023-01-27T23:18:36.722Z,90.03
2023-01-27T23:21:06.358Z,89.66
2023-01-27T23:23:33.923Z,90.43
2023-01-27T23:26:00.368Z,90.13
2023-01-27T23:28:26.916Z,90.61
2023-01-27T23:30:53.826Z,90.70
2023-01-27T23:33:20.747Z,90.34
2023-01-27T23:35:47.699Z,90.84
2023-01-27T23:38:31.455Z,90.67
2023-01-27T23:41:03.567Z,89.86
2023-01-27T23:43:31.033Z,90.84
2023-01-27T23:45:58.051Z,90.76
2023-01-27T23:48:24.738Z,89.81
2023-01-27T23:50:51.142Z,91.24
2023-01-27T23:53:17.580Z,89.83
2023-01-27T23:55:44.258Z,90.32
2023-01-27T23:58:10.704Z,91.06
